Time;durP1;ratioP1;P1;durP2;ratioP2;P2;SDS_P1;SDS_P2;PMS_P1;PMS_P2;Temp;Humidity;BMP_temperature;BMP_pressure;BME280_temperature;BME280_humidity;BME280_pressure;Samples;Min_cycle;Max_cycle;Signal;HPM_P1;HPM_P2
2021/09/26 00:00:35;;;;;;;;;24.00;19.50;;;;;25.07;56.29;100543.16;6219802;22;59727;-70
2021/09/26 00:03:00;;;;;;;;;18.00;16.75;;;;;25.05;56.34;100534.38;6219820;22;59534;-70
2021/09/26 00:05:26;;;;;;;;;16.50;16.50;;;;;25.03;56.27;100537.13;6195815;22;45403;-70
2021/09/26 00:07:51;;;;;;;;;18.00;16.00;;;;;25.01;56.40;100528.28;6220440;22;58272;-70
2021/09/26 00:10:16;;;;;;;;;17.75;17.50;;;;;25.03;56.66;100545.16;6195311;22;54038;-70
2021/09/26 00:12:42;;;;;;;;;16.50;13.75;;;;;25.03;56.57;100538.94;6195040;22;57226;-70
2021/09/26 00:15:10;;;;;;;;;16.50;15.50;;;;;25.01;56.48;100538.09;6195677;22;45185;-70
2021/09/26 00:17:36;;;;;;;;;20.75;18.00;;;;;25.04;56.45;100549.53;6195444;22;45203;-70
2021/09/26 00:20:01;;;;;;;;;16.75;16.50;;;;;25.02;56.61;100550.50;6169397;22;61439;-70
2021/09/26 00:22:27;;;;;;;;;18.00;17.25;;;;;25.00;56.56;100539.06;6220404;22;48247;-70
2021/09/26 00:24:52;;;;;;;;;17.75;17.00;;;;;24.98;56.43;100538.28;6193992;22;56590;-70
2021/09/26 00:27:17;;;;;;;;;17.75;17.00;;;;;25.01;56.40;100548.78;6195068;22;61322;-70
2021/09/26 00:29:43;;;;;;;;;17.25;16.25;;;;;25.00;56.66;100549.75;6194989;22;45425;-70
2021/09/26 00:32:08;;;;;;;;;19.75;19.00;;;;;25.00;56.05;100558.59;6194776;22;60467;-70
2021/09/26 00:34:34;;;;;;;;;21.00;19.75;;;;;25.01;56.54;100564.81;6220801;22;45390;-70
2021/09/26 00:36:59;;;;;;;;;22.75;18.75;;;;;24.99;56.20;100574.72;6195150;22;57035;-70
2021/09/26 00:39:25;;;;;;;;;19.75;17.25;;;;;24.97;56.75;100581.94;6169680;22;45749;-70
2021/09/26 00:41:50;;;;;;;;;17.00;14.75;;;;;24.98;56.73;100579.19;6220285;22;57940;-70
2021/09/26 00:44:16;;;;;;;;;16.75;15.50;;;;;24.99;56.81;100578.25;6169849;22;45379;-70
2021/09/26 00:46:42;;;;;;;;;19.00;17.50;;;;;24.96;56.87;100572.22;6220633;22;45357;-70
2021/09/26 00:49:07;;;;;;;;;18.75;17.00;;;;;24.95;57.17;100571.34;6195335;22;45258;-70
2021/09/26 00:51:32;;;;;;;;;17.50;16.25;;;;;24.96;57.03;100562.41;6245804;22;46978;-70
2021/09/26 00:53:58;;;;;;;;;17.50;15.75;;;;;24.99;56.76;100564.91;6193980;22;59338;-70
2021/09/26 00:56:23;;;;;;;;;18.25;17.25;;;;;24.98;56.82;100559.66;6220553;22;45479;-70
2021/09/26 00:58:49;;;;;;;;;19.25;16.75;;;;;24.97;56.89;100560.59;6195630;22;45252;-70
2021/09/26 01:01:15;;;;;;;;;14.25;14.00;;;;;24.98;56.92;100562.31;6170045;22;47075;-70
2021/09/26 01:03:40;;;;;;;;;21.75;17.25;;;;;24.97;57.08;100564.13;6220146;22;45234;-70
2021/09/26 01:06:27;;;;;;;;;18.25;16.00;;;;;24.98;57.03;100562.31;6170459;22;45398;-70
2021/09/26 01:09:03;;;;;;;;;14.25;14.00;;;;;24.98;57.31;100571.19;6245576;22;45410;-70
2021/09/26 01:11:56;;;;;;;;;16.75;15.25;;;;;24.98;56.79;100573.00;6219981;22;47100;-70
2021/09/26 01:14:36;;;;;;;;;18.50;17.00;;;;;24.97;56.70;100569.47;6220264;22;45225;-70
2021/09/26 01:17:09;;;;;;;;;19.00;18.00;;;;;24.97;57.10;100568.59;6245566;22;45347;-71
2021/09/26 01:19:39;;;;;;;;;16.75;16.25;;;;;24.98;57.07;100567.66;6195021;22;45304;-70
2021/09/26 01:22:13;;;;;;;;;19.75;17.25;;;;;24.98;57.27;100576.53;6220396;22;45326;-70
2021/09/26 01:24:47;;;;;;;;;21.00;17.25;;;;;24.98;57.12;100576.53;6196770;22;45426;-70
2021/09/26 01:27:24;;;;;;;;;14.25;14.25;;;;;24.99;56.93;100580.91;6245713;22;45368;-70
2021/09/26 01:30:15;;;;;;;;;13.25;13.25;;;;;25.00;57.19;100596.00;6245622;22;45760;-70
2021/09/26 01:32:42;;;;;;;;;16.00;16.00;;;;;24.99;57.28;100596.06;6247048;22;46132;-70
2021/09/26 01:35:09;;;;;;;;;17.50;17.25;;;;;24.99;57.02;100606.75;6195434;22;45332;-71
2021/09/26 01:37:41;;;;;;;;;16.00;15.50;;;;;24.99;56.98;100606.75;6196968;22;45391;-71
2021/09/26 01:40:13;;;;;;;;;12.75;12.00;;;;;25.01;57.25;100604.88;6190948;22;45273;-70
2021/09/26 01:42:50;;;;;;;;;16.00;14.75;;;;;24.99;56.94;100598.75;6191116;22;45947;-70
2021/09/26 01:45:41;;;;;;;;;16.50;15.50;;;;;24.99;57.28;100582.72;6191252;22;45313;-70
2021/09/26 01:48:13;;;;;;;;;18.50;15.25;;;;;24.99;56.70;100591.59;6192117;22;45237;-70
2021/09/26 01:50:38;;;;;;;;;17.00;16.50;;;;;24.96;57.09;100578.41;6191818;22;45419;-70
2021/09/26 01:53:03;;;;;;;;;21.25;17.50;;;;;24.98;56.66;100592.53;6190564;22;59010;-70
2021/09/26 01:55:29;;;;;;;;;16.00;16.00;;;;;24.98;56.38;100584.53;6216325;22;47925;-70
2021/09/26 01:57:55;;;;;;;;;20.75;18.75;;;;;24.98;56.59;100591.69;6191059;22;45129;-70
2021/09/26 02:00:20;;;;;;;;;20.00;18.25;;;;;24.98;56.92;100587.22;6191425;22;45491;-70
2021/09/26 02:02:49;;;;;;;;;22.75;20.00;;;;;24.96;57.12;100577.56;6190233;22;47162;-70
2021/09/26 02:05:14;;;;;;;;;21.00;19.00;;;;;24.97;56.90;100584.63;6216319;22;51048;-70
2021/09/26 02:07:42;;;;;;;;;20.25;19.75;;;;;24.97;56.90;100587.28;6216300;22;45288;-71
2021/09/26 02:10:08;;;;;;;;;16.50;15.50;;;;;24.97;57.00;100585.47;6217938;22;45225;-71
2021/09/26 02:12:33;;;;;;;;;23.25;16.75;;;;;24.95;56.87;100587.38;6215833;22;46221;-70
2021/09/26 02:15:00;;;;;;;;;17.25;17.25;;;;;24.96;56.88;100588.25;6216597;22;45099;-71
2021/09/26 02:17:28;;;;;;;;;15.75;14.75;;;;;24.90;56.93;100573.41;6216754;22;45273;-71
2021/09/26 02:20:00;;;;;;;;;16.00;15.50;;;;;24.93;56.91;100583.03;6166649;22;45348;-71
2021/09/26 02:22:29;;;;;;;;;17.75;17.00;;;;;24.93;57.08;100594.59;6191546;22;47477;-71
2021/09/26 02:24:55;;;;;;;;;14.75;14.50;;;;;24.92;57.05;100590.19;6191080;22;45411;-71
2021/09/26 02:27:20;;;;;;;;;19.25;15.75;;;;;24.93;56.69;100588.38;6190813;22;45320;-70
2021/09/26 02:29:45;;;;;;;;;20.25;18.00;;;;;24.92;57.08;100581.31;6190943;22;46933;-71
2021/09/26 02:32:11;;;;;;;;;16.25;15.75;;;;;24.91;56.90;100591.13;6215611;22;63559;-71
2021/09/26 02:34:36;;;;;;;;;17.25;14.50;;;;;24.87;56.85;100584.25;6215573;22;54935;-71
2021/09/26 02:37:02;;;;;;;;;17.75;16.75;;;;;24.90;56.81;100584.06;6190798;22;53023;-71
2021/09/26 02:39:27;;;;;;;;;14.00;13.25;;;;;24.90;56.95;100578.72;6190361;22;45193;-70
2021/09/26 02:42:04;;;;;;;;;17.25;17.00;;;;;24.90;57.09;100573.41;6215694;22;64591;-71
2021/09/26 02:44:45;;;;;;;;;18.50;14.75;;;;;24.89;56.82;100573.47;6191689;22;45267;-71
2021/09/26 02:47:12;;;;;;;;;18.00;16.00;;;;;24.89;56.99;100576.16;6192118;22;45334;-71
2021/09/26 02:49:39;;;;;;;;;15.25;15.25;;;;;24.88;56.92;100563.75;6190748;22;45185;-71
2021/09/26 02:52:06;;;;;;;;;16.75;15.50;;;;;24.89;57.18;100562.81;6191088;22;46350;-71
2021/09/26 02:54:35;;;;;;;;;18.25;17.25;;;;;24.88;56.92;100563.75;6215977;22;45248;-71
2021/09/26 02:57:00;;;;;;;;;17.00;15.75;;;;;24.88;56.97;100559.28;6191341;22;45455;-70
2021/09/26 02:59:25;;;;;;;;;18.25;16.75;;;;;24.88;56.73;100563.75;6190863;22;45552;-70
2021/09/26 03:01:52;;;;;;;;;17.00;16.50;;;;;24.86;56.71;100555.84;6215235;22;68526;-71
2021/09/26 03:04:17;;;;;;;;;19.00;16.25;;;;;24.86;57.10;100557.63;6190782;22;45264;-71
2021/09/26 03:06:42;;;;;;;;;16.50;14.25;;;;;24.85;56.91;100548.78;6216750;22;45256;-71
2021/09/26 03:09:08;;;;;;;;;14.25;14.00;;;;;24.83;57.14;100555.09;6190002;22;59297;-70
2021/09/26 03:11:33;;;;;;;;;17.50;15.00;;;;;24.80;56.65;100549.00;6190616;22;46982;-71
2021/09/26 03:13:58;;;;;;;;;15.75;15.00;;;;;24.83;57.07;100549.78;6217079;22;62568;-71
2021/09/26 03:16:24;;;;;;;;;19.00;15.75;;;;;24.79;56.72;100549.94;6190442;22;56503;-71
2021/09/26 03:18:49;;;;;;;;;18.25;16.00;;;;;24.77;57.36;100538.50;6190179;22;45805;-71
2021/09/26 03:21:15;;;;;;;;;15.50;14.50;;;;;24.82;57.36;100543.56;6190228;22;46968;-71
2021/09/26 03:23:40;;;;;;;;;19.25;15.50;;;;;24.83;56.99;100536.44;6190765;22;45119;-71
2021/09/26 03:26:06;;;;;;;;;17.00;16.00;;;;;24.81;57.32;100529.38;6216200;22;45182;-71
2021/09/26 03:28:31;;;;;;;;;13.25;13.00;;;;;24.80;57.13;100522.31;6165562;22;46757;-71
2021/09/26 03:30:57;;;;;;;;;17.25;13.75;;;;;24.81;56.80;100524.03;6215213;22;48058;-70
2021/09/26 03:33:22;;;;;;;;;18.75;15.00;;;;;24.80;57.18;100529.44;6215769;22;45216;-71
2021/09/26 03:35:47;;;;;;;;;14.50;14.50;;;;;24.77;57.24;100526.97;6189826;22;52832;-70
2021/09/26 03:38:13;;;;;;;;;17.00;15.25;;;;;24.79;57.00;100536.59;6190890;22;45218;-72
2021/09/26 03:40:38;;;;;;;;;13.75;12.50;;;;;24.80;57.18;100540.13;6195181;22;47885;-71
2021/09/26 03:43:04;;;;;;;;;14.75;13.75;;;;;24.80;57.03;100545.47;6194438;22;59811;-71
2021/09/26 03:45:30;;;;;;;;;15.50;14.25;;;;;24.79;57.20;100533.06;6248069;22;45192;-71
2021/09/26 03:47:56;;;;;;;;;14.75;14.75;;;;;24.79;57.38;100530.41;6195297;22;51988;-71
2021/09/26 03:50:21;;;;;;;;;14.25;14.00;;;;;24.77;57.26;100529.63;6195312;22;47431;-71
2021/09/26 03:52:46;;;;;;;;;17.00;14.00;;;;;24.78;56.97;100534.88;6219754;22;59469;-70
2021/09/26 03:55:12;;;;;;;;;15.50;14.00;;;;;24.79;56.68;100539.25;6195733;22;45750;-71
2021/09/26 03:57:38;;;;;;;;;16.25;14.00;;;;;24.78;56.71;100531.34;6221149;22;45254;-71
2021/09/26 04:00:04;;;;;;;;;16.50;14.00;;;;;24.79;57.21;100527.72;6195430;22;47059;-71
2021/09/26 04:02:30;;;;;;;;;14.75;13.75;;;;;24.77;56.57;100517.13;6194638;22;45107;-70
2021/09/26 04:04:55;;;;;;;;;16.25;16.25;;;;;24.78;56.82;100526.88;6196115;22;45204;-70
2021/09/26 04:07:20;;;;;;;;;17.50;16.25;;;;;24.75;56.59;100513.66;6194260;22;63246;-71
2021/09/26 04:09:46;;;;;;;;;15.25;13.00;;;;;24.75;56.76;100513.66;6220081;22;55669;-71
2021/09/26 04:12:11;;;;;;;;;14.50;14.00;;;;;24.74;56.88;100519.09;6220228;22;45309;-71
2021/09/26 04:14:37;;;;;;;;;12.50;12.50;;;;;24.75;56.84;100521.66;6195399;22;54645;-70
2021/09/26 04:17:03;;;;;;;;;17.25;13.00;;;;;24.74;56.61;100514.63;6170045;22;45784;-71
2021/09/26 04:19:28;;;;;;;;;12.75;12.00;;;;;24.73;56.38;100512.91;6195541;22;45633;-71
2021/09/26 04:21:53;;;;;;;;;15.00;14.25;;;;;24.73;56.53;100520.91;6194281;22;61740;-71
2021/09/26 04:24:19;;;;;;;;;13.25;12.00;;;;;24.69;56.65;100505.16;6195340;22;49499;-71
2021/09/26 04:26:44;;;;;;;;;14.50;13.00;;;;;24.74;56.63;100521.75;6169885;22;45366;-71
2021/09/26 04:29:10;;;;;;;;;13.00;12.50;;;;;24.72;56.83;100510.31;6220340;22;48405;-71
2021/09/26 04:31:35;;;;;;;;;15.25;13.50;;;;;24.74;56.78;100519.09;6220004;22;60490;-70
2021/09/26 04:34:00;;;;;;;;;13.25;13.25;;;;;24.73;56.98;100518.22;6219895;22;58767;-71
2021/09/26 04:36:26;;;;;;;;;14.50;13.75;;;;;24.72;56.75;100510.31;6220403;22;56433;-71
2021/09/26 04:38:51;;;;;;;;;12.75;11.75;;;;;24.73;57.04;100506.69;6194819;22;47398;-71
2021/09/26 04:41:17;;;;;;;;;14.00;13.00;;;;;24.71;56.78;100492.56;6220308;22;57072;-70
2021/09/26 04:43:42;;;;;;;;;15.00;13.00;;;;;24.69;56.22;100490.00;6196048;22;45598;-71
2021/09/26 04:46:07;;;;;;;;;12.50;12.25;;;;;24.67;56.77;100491.88;6195848;22;45304;-71
2021/09/26 04:48:33;;;;;;;;;13.50;13.50;;;;;24.70;56.72;100497.06;6169914;22;47088;-71
2021/09/26 04:50:58;;;;;;;;;13.00;13.00;;;;;24.70;56.82;100497.06;6195470;22;47769;-71
2021/09/26 04:53:24;;;;;;;;;15.25;14.00;;;;;24.64;56.80;100491.16;6195497;22;48335;-71
2021/09/26 04:55:49;;;;;;;;;15.50;15.50;;;;;24.70;56.77;100507.72;6169390;22;61955;-71
2021/09/26 04:58:14;;;;;;;;;15.75;13.75;;;;;24.68;56.87;100498.09;6220863;22;45196;-71
2021/09/26 05:00:40;;;;;;;;;13.50;11.50;;;;;24.68;56.58;100498.94;6169903;22;47617;-71
2021/09/26 05:03:05;;;;;;;;;17.50;15.50;;;;;24.66;56.68;100500.81;6169567;22;45570;-70
2021/09/26 05:05:31;;;;;;;;;13.25;12.25;;;;;24.67;56.98;100507.91;6194936;22;45527;-71
2021/09/26 05:07:56;;;;;;;;;13.50;13.25;;;;;24.66;56.26;100516.81;6195526;22;45205;-71
2021/09/26 05:10:22;;;;;;;;;13.75;13.75;;;;;24.66;56.64;100519.50;6195015;22;59502;-71
2021/09/26 05:12:47;;;;;;;;;12.00;12.00;;;;;24.67;56.66;100528.34;6198780;22;45321;-71
2021/09/26 05:15:13;;;;;;;;;13.25;12.25;;;;;24.63;56.69;100530.34;6198692;22;45242;-71
2021/09/26 05:17:38;;;;;;;;;13.00;12.00;;;;;24.64;56.64;100532.06;6223018;22;45723;-71
2021/09/26 05:20:04;;;;;;;;;13.50;13.25;;;;;24.62;56.43;100533.94;6223462;22;45285;-71
2021/09/26 05:22:30;;;;;;;;;15.75;12.75;;;;;24.64;56.72;100547.22;6198028;22;45328;-71
2021/09/26 05:24:55;;;;;;;;;15.75;11.50;;;;;24.65;56.71;100554.28;6173319;22;45523;-71
2021/09/26 05:27:21;;;;;;;;;15.50;13.75;;;;;24.64;56.59;100555.22;6197843;22;47558;-71
2021/09/26 05:29:46;;;;;;;;;15.00;14.00;;;;;24.64;56.22;100566.75;6198504;22;45270;-71
2021/09/26 05:32:12;;;;;;;;;11.25;10.25;;;;;24.64;56.46;100580.09;6172283;22;57666;-71
2021/09/26 05:34:37;;;;;;;;;14.25;12.75;;;;;24.64;56.37;100579.22;6198355;22;45292;-71
2021/09/26 05:37:03;;;;;;;;;12.75;11.50;;;;;24.64;56.91;100580.09;6198611;22;46473;-71
2021/09/26 05:39:31;;;;;;;;;13.75;13.75;;;;;24.64;56.65;100582.75;6218041;22;45225;-71
2021/09/26 05:41:58;;;;;;;;;13.25;13.00;;;;;24.63;56.64;100583.72;6218648;22;45208;-71
2021/09/26 05:44:23;;;;;;;;;17.50;14.75;;;;;24.60;56.44;100577.69;6218360;22;45380;-71
2021/09/26 05:46:48;;;;;;;;;11.25;11.25;;;;;24.61;56.42;100579.41;6217962;22;58059;-71
2021/09/26 05:49:14;;;;;;;;;14.75;12.00;;;;;24.61;56.95;100577.59;6217611;22;56855;-71
2021/09/26 05:51:39;;;;;;;;;13.50;12.75;;;;;24.61;56.54;100576.72;6217904;22;51310;-71
2021/09/26 05:54:05;;;;;;;;;12.25;11.25;;;;;24.61;56.41;100582.94;6193288;22;47718;-71
2021/09/26 05:56:30;;;;;;;;;17.50;14.00;;;;;24.62;56.73;100590.00;6193233;22;45328;-71
2021/09/26 05:58:55;;;;;;;;;10.75;10.75;;;;;24.61;56.39;100604.28;6193401;22;45336;-71
2021/09/26 06:01:21;;;;;;;;;16.00;13.50;;;;;24.60;56.83;100607.03;6192466;22;55984;-70
2021/09/26 06:03:46;;;;;;;;;19.00;16.75;;;;;24.59;57.69;100614.19;6192723;22;45406;-71
2021/09/26 06:06:12;;;;;;;;;16.75;15.50;;;;;24.58;56.98;100615.09;6192727;22;47007;-70
2021/09/26 06:08:37;;;;;;;;;11.50;11.50;;;;;24.59;57.45;100616.00;6192470;22;55103;-71
2021/09/26 06:11:03;;;;;;;;;16.00;14.25;;;;;24.59;57.51;100611.50;6192919;22;45275;-71
2021/09/26 06:13:28;;;;;;;;;13.50;10.75;;;;;24.60;57.02;100609.69;6192476;22;45438;-72
2021/09/26 06:15:53;;;;;;;;;14.00;13.75;;;;;24.56;57.43;100606.31;6193790;22;47209;-72
2021/09/26 06:18:19;;;;;;;;;14.75;13.75;;;;;24.57;57.48;100609.84;6192083;22;45371;-72
2021/09/26 06:20:45;;;;;;;;;18.25;18.25;;;;;24.59;57.74;100610.66;6193317;22;45219;-74
2021/09/26 06:23:11;;;;;;;;;15.00;14.75;;;;;24.66;56.68;100620.03;6190603;22;45833;-73
2021/09/26 06:25:36;;;;;;;;;14.25;13.50;;;;;24.67;57.20;100620.00;6190808;22;47453;-74
2021/09/26 06:28:02;;;;;;;;;35.75;33.25;;;;;24.70;57.01;100617.16;6191189;22;45204;-74
2021/09/26 06:30:27;;;;;;;;;24.00;22.75;;;;;24.74;56.70;100618.72;6190943;22;45248;-73
2021/09/26 06:32:53;;;;;;;;;19.50;16.75;;;;;24.73;56.47;100610.78;6190347;22;45173;-71
2021/09/26 06:35:18;;;;;;;;;17.00;17.00;;;;;24.77;55.97;100621.25;6215275;22;60548;-71
2021/09/26 06:37:43;;;;;;;;;17.50;17.25;;;;;24.79;56.01;100626.50;6190828;22;45283;-71
2021/09/26 06:40:09;;;;;;;;;19.50;16.75;;;;;24.77;56.05;100628.38;6190774;22;45218;-71
2021/09/26 06:42:35;;;;;;;;;16.75;14.00;;;;;24.68;56.00;100616.38;6217336;22;45312;-72
2021/09/26 06:45:00;;;;;;;;;18.50;15.50;;;;;24.74;55.98;100631.19;6217617;22;46480;-71
2021/09/26 06:47:26;;;;;;;;;14.50;13.25;;;;;24.75;55.71;100632.91;6217546;22;45211;-71
2021/09/26 06:49:52;;;;;;;;;15.25;14.50;;;;;24.75;56.31;100636.44;6216802;22;45252;-71
2021/09/26 06:52:17;;;;;;;;;12.00;12.00;;;;;24.73;56.30;100632.13;6190722;22;45363;-72
2021/09/26 06:54:43;;;;;;;;;14.50;13.50;;;;;24.74;56.07;100645.41;6190513;22;47242;-72
2021/09/26 06:57:09;;;;;;;;;14.50;12.00;;;;;24.69;56.15;100643.94;6190768;22;45133;-72
2021/09/26 06:59:34;;;;;;;;;13.25;13.00;;;;;24.69;56.16;100644.78;6190587;22;45198;-71
2021/09/26 07:01:59;;;;;;;;;13.50;13.50;;;;;24.68;56.05;100640.41;6190324;22;60858;-71
2021/09/26 07:04:25;;;;;;;;;13.50;12.00;;;;;24.67;55.94;100641.34;6190096;22;47019;-72
2021/09/26 07:06:51;;;;;;;;;14.00;14.00;;;;;24.68;55.83;100648.41;6191067;22;45185;-71
2021/09/26 07:09:17;;;;;;;;;15.00;14.00;;;;;24.68;56.36;100647.53;6218013;22;45152;-71
2021/09/26 07:11:43;;;;;;;;;13.00;13.00;;;;;24.67;56.73;100656.47;6190748;22;45423;-71
2021/09/26 07:14:08;;;;;;;;;16.25;15.00;;;;;24.65;56.55;100659.22;6190800;22;47145;-71
2021/09/26 07:16:34;;;;;;;;;12.00;11.25;;;;;24.64;56.54;100659.28;6191108;22;45277;-71
2021/09/26 07:18:59;;;;;;;;;12.75;12.00;;;;;24.64;56.07;100661.97;6189632;22;58999;-72
2021/09/26 07:21:24;;;;;;;;;18.25;13.00;;;;;24.65;56.45;100659.22;6190127;22;51540;-71
2021/09/26 07:23:50;;;;;;;;;14.25;13.25;;;;;24.63;56.30;100650.44;6215109;22;64992;-71
2021/09/26 07:26:15;;;;;;;;;10.75;10.50;;;;;24.63;56.36;100653.09;6189904;22;64831;-70
2021/09/26 07:28:41;;;;;;;;;16.75;14.25;;;;;24.63;56.66;100655.75;6191202;22;45458;-71
2021/09/26 07:31:06;;;;;;;;;15.25;14.50;;;;;24.60;56.79;100661.28;6190426;22;45444;-71
2021/09/26 07:33:32;;;;;;;;;14.00;12.00;;;;;24.60;56.80;100666.59;6215610;22;45859;-73
2021/09/26 07:35:57;;;;;;;;;16.25;16.25;;;;;24.59;56.52;100672.03;6190052;22;45817;-73
2021/09/26 07:38:22;;;;;;;;;14.25;13.00;;;;;24.52;56.57;100668.78;6168241;22;50491;-73
2021/09/26 07:40:48;;;;;;;;;14.50;14.50;;;;;24.56;56.65;100685.50;6195926;22;45355;-71
2021/09/26 07:43:13;;;;;;;;;18.50;15.75;;;;;24.52;56.13;100688.31;6195517;22;45163;-71
2021/09/26 07:45:39;;;;;;;;;25.00;19.00;;;;;24.46;56.36;100698.44;6221119;22;45166;-72
2021/09/26 07:48:05;;;;;;;;;18.25;15.75;;;;;24.39;56.09;100703.19;6194745;22;55206;-71
2021/09/26 07:50:31;;;;;;;;;16.50;13.50;;;;;24.30;56.39;100692.94;6195485;22;45792;-74
2021/09/26 07:53:14;;;;;;;;;15.25;15.25;;;;;24.30;57.80;100695.59;6195572;22;47315;-77
2021/09/26 07:55:40;;;;;;;;;16.75;14.00;;;;;24.30;56.94;100697.41;6194802;22;62335;-74
2021/09/26 07:58:05;;;;;;;;;16.25;15.25;;;;;24.23;56.25;100687.03;6195908;22;45186;-75
2021/09/26 08:00:31;;;;;;;;;18.50;16.50;;;;;24.28;56.36;100701.97;6220988;22;45118;-74
2021/09/26 08:02:56;;;;;;;;;15.50;14.25;;;;;24.29;56.27;100711.69;6246926;22;55527;-74
2021/09/26 08:05:22;;;;;;;;;14.50;13.00;;;;;24.27;55.64;100722.44;6247914;22;45175;-76
2021/09/26 08:07:47;;;;;;;;;19.00;17.75;;;;;24.23;55.90;100715.50;6248088;22;45616;-73
2021/09/26 08:10:12;;;;;;;;;14.50;14.50;;;;;24.19;55.99;100712.13;6247979;22;45150;-73
2021/09/26 08:12:38;;;;;;;;;16.50;14.50;;;;;24.09;57.09;100707.31;6195200;22;47974;-74
2021/09/26 08:15:04;;;;;;;;;19.75;16.00;;;;;23.99;57.31;100704.22;6195688;22;45313;-75
2021/09/26 08:17:29;;;;;;;;;16.00;14.50;;;;;23.89;56.37;100693.13;6247715;22;45189;-74
2021/09/26 08:19:55;;;;;;;;;16.75;14.25;;;;;23.87;56.97;100702.09;6245822;22;45232;-74
2021/09/26 08:22:20;;;;;;;;;22.00;19.75;;;;;23.83;56.60;100705.88;6195467;22;46036;-78
2021/09/26 08:24:46;;;;;;;;;17.75;16.75;;;;;23.78;56.52;100703.41;6220880;22;45359;-72
2021/09/26 08:27:13;;;;;;;;;18.50;14.50;;;;;23.78;56.22;100708.72;6195607;22;45665;-73
2021/09/26 08:29:38;;;;;;;;;16.00;15.00;;;;;23.77;56.76;100715.00;6195808;22;45233;-70
2021/09/26 08:32:05;;;;;;;;;17.75;16.00;;;;;23.86;56.44;100722.56;6220406;22;54384;-70
2021/09/26 08:34:30;;;;;;;;;15.00;14.50;;;;;23.89;57.09;100719.78;6195313;22;45135;-74
2021/09/26 08:36:56;;;;;;;;;16.25;15.75;;;;;23.95;56.60;100721.28;6247568;22;53546;-71
2021/09/26 08:39:21;;;;;;;;;15.00;14.75;;;;;23.96;56.54;100729.19;6195172;22;45195;-71
2021/09/26 08:41:51;;;;;;;;;14.00;13.75;;;;;23.99;55.68;100725.56;6220316;22;47122;-75
2021/09/26 08:44:17;;;;;;;;;12.50;11.75;;;;;23.97;56.23;100724.72;6195173;22;45383;-71
2021/09/26 08:46:42;;;;;;;;;19.00;16.00;;;;;24.03;55.97;100724.47;6195217;22;45657;-75
2021/09/26 08:49:08;;;;;;;;;17.75;15.75;;;;;23.93;56.08;100712.50;6194014;22;65494;-75
2021/09/26 08:51:33;;;;;;;;;16.00;13.00;;;;;24.07;55.43;100728.72;6220003;22;58699;-75
2021/09/26 08:53:59;;;;;;;;;14.00;13.50;;;;;24.05;55.38;100727.91;6247847;22;45142;-73
2021/09/26 08:56:24;;;;;;;;;18.25;17.00;;;;;24.05;55.43;100719.03;6248002;22;45111;-72
2021/09/26 08:58:49;;;;;;;;;18.00;15.00;;;;;24.05;54.96;100727.03;6247828;22;45162;-73
2021/09/26 09:01:15;;;;;;;;;17.75;13.50;;;;;24.04;55.26;100730.66;6220832;22;45265;-74
2021/09/26 09:03:46;;;;;;;;;14.50;12.25;;;;;24.02;54.62;100716.53;6247296;22;45190;-76
2021/09/26 09:06:12;;;;;;;;;14.00;13.25;;;;;24.00;54.63;100716.59;6196070;22;45276;-69
2021/09/26 09:08:41;;;;;;;;;18.25;16.50;;;;;24.04;55.35;100719.97;6194641;22;45364;-71
2021/09/26 09:11:06;;;;;;;;;18.25;15.50;;;;;24.13;55.47;100719.56;6169937;22;47565;-70
2021/09/26 09:13:38;;;;;;;;;17.75;15.50;;;;;24.19;55.73;100717.47;6195242;22;45121;-70
2021/09/26 09:16:08;;;;;;;;;21.50;20.00;;;;;24.21;55.22;100723.59;6220886;22;45222;-70
2021/09/26 09:18:43;;;;;;;;;17.75;15.25;;;;;24.22;54.81;100713.78;6220154;22;45316;-70
2021/09/26 09:21:34;;;;;;;;;18.00;17.25;;;;;24.24;54.99;100717.25;6220200;22;47306;-71
2021/09/26 09:24:26;;;;;;;;;16.50;15.25;;;;;24.24;55.00;100714.59;6188790;22;45114;-71
2021/09/26 09:26:52;;;;;;;;;18.00;18.00;;;;;24.10;54.37;100703.72;6172320;22;45276;-71
2021/09/26 09:29:19;;;;;;;;;19.25;15.75;;;;;24.05;54.63;100705.72;6220031;22;45956;-70
2021/09/26 09:31:56;;;;;;;;;14.00;13.00;;;;;24.09;54.43;100712.66;6194952;22;46288;-71
2021/09/26 09:34:31;;;;;;;;;16.00;14.75;;;;;24.07;54.75;100727.88;6195012;22;45696;-70
2021/09/26 09:37:13;;;;;;;;;15.00;14.75;;;;;24.03;54.89;100729.78;6220091;22;45235;-70
2021/09/26 09:39:39;;;;;;;;;18.00;14.75;;;;;24.04;55.32;100731.50;6220078;22;45203;-70
2021/09/26 09:42:20;;;;;;;;;10.75;10.00;;;;;24.04;55.30;100725.31;6194459;22;47296;-70
2021/09/26 09:44:46;;;;;;;;;15.00;15.00;;;;;24.09;55.38;100720.66;6195106;22;45254;-70
2021/09/26 09:47:11;;;;;;;;;15.00;14.00;;;;;24.19;55.53;100736.13;6194311;22;45313;-69
2021/09/26 09:49:37;;;;;;;;;17.00;13.00;;;;;24.26;56.19;100731.38;6169516;22;45197;-71
2021/09/26 09:52:03;;;;;;;;;15.25;12.50;;;;;24.34;55.02;100725.72;6194633;22;47899;-73
2021/09/26 09:54:36;;;;;;;;;10.75;10.50;;;;;24.34;55.10;100728.38;6194817;22;45218;-71
2021/09/26 09:57:12;;;;;;;;;12.75;12.00;;;;;24.35;54.97;100728.31;6195740;22;45342;-71
2021/09/26 09:59:38;;;;;;;;;16.00;13.00;;;;;24.34;55.36;100728.38;6194360;22;45539;-70
2021/09/26 10:02:04;;;;;;;;;12.25;9.75;;;;;24.37;55.47;100731.75;6194979;22;45198;-70
2021/09/26 10:04:37;;;;;;;;;14.75;13.50;;;;;24.35;54.93;100724.78;6219269;22;45260;-70
2021/09/26 10:07:38;;;;;;;;;13.75;10.25;;;;;24.34;55.00;100723.91;6220511;22;45289;-71
2021/09/26 10:10:13;;;;;;;;;13.00;11.50;;;;;24.34;55.22;100729.25;6106239;23;46089;-71
2021/09/26 10:12:40;;;;;;;;;16.25;13.50;;;;;24.32;55.10;100727.56;6177715;22;46878;-71
2021/09/26 10:15:05;;;;;;;;;15.00;13.50;;;;;24.29;54.88;100723.22;6221133;22;45252;-71
2021/09/26 10:17:31;;;;;;;;;16.75;16.00;;;;;24.24;54.64;100728.78;6220597;22;45312;-71
2021/09/26 10:19:56;;;;;;;;;13.25;12.25;;;;;24.21;54.66;100734.25;6196007;22;45425;-70
2021/09/26 10:22:22;;;;;;;;;15.00;11.75;;;;;24.15;54.27;100734.56;6221526;22;45491;-70
2021/09/26 10:24:55;;;;;;;;;14.50;12.00;;;;;23.97;54.56;100708.75;6220864;22;46140;-72
2021/09/26 10:27:22;;;;;;;;;17.25;13.75;;;;;24.06;55.21;100726.97;6248559;22;45431;-72
2021/09/26 10:30:08;;;;;;;;;12.00;11.50;;;;;24.18;55.48;100722.88;6220755;22;45576;-72
2021/09/26 10:32:34;;;;;;;;;14.00;11.50;;;;;24.19;55.87;100730.81;6220102;22;46237;-72
2021/09/26 10:35:00;;;;;;;;;13.25;13.25;;;;;24.20;55.74;100726.31;6221603;22;45240;-72
2021/09/26 10:37:25;;;;;;;;;13.25;12.25;;;;;24.27;56.01;100737.56;6221474;22;45264;-73
2021/09/26 10:39:51;;;;;;;;;16.25;14.00;;;;;24.27;56.05;100722.44;6170150;22;45463;-71
2021/09/26 10:42:21;;;;;;;;;16.00;14.00;;;;;24.28;56.36;100723.31;6221022;22;45287;-74
2021/09/26 10:44:58;;;;;;;;;13.25;12.25;;;;;24.33;55.96;100732.84;6220396;22;45351;-74
2021/09/26 10:47:25;;;;;;;;;16.00;13.50;;;;;24.36;56.72;100726.50;6248005;22;45153;-73
2021/09/26 10:49:57;;;;;;;;;12.50;11.25;;;;;24.39;56.40;100721.88;6195930;22;45186;-74
2021/09/26 10:52:55;;;;;;;;;16.25;12.00;;;;;24.42;56.11;100726.22;6248085;22;46121;-74
2021/09/26 10:55:32;;;;;;;;;16.00;13.25;;;;;24.43;55.86;100727.94;6219420;22;45139;-71
2021/09/26 10:58:01;;;;;;;;;14.25;13.00;;;;;24.43;55.42;100718.13;6220983;22;45213;-73
2021/09/26 11:00:30;;;;;;;;;13.50;12.00;;;;;24.44;55.28;100727.84;6248430;22;45439;-74
2021/09/26 11:02:55;;;;;;;;;13.00;12.25;;;;;24.42;55.58;100727.06;6247585;22;45373;-72
2021/09/26 11:05:32;;;;;;;;;11.50;9.50;;;;;24.45;56.22;100723.38;6220732;22;45191;-72
2021/09/26 11:07:57;;;;;;;;;15.25;13.00;;;;;24.50;56.29;100724.91;6221219;22;45214;-72
2021/09/26 11:10:50;;;;;;;;;13.75;12.00;;;;;24.55;56.01;100724.66;6248146;22;45160;-73